PWSweather.com
Personal Weather Stations
Station Observations
AC5CV
Greenleaf Peninsula, Waco, TX 76710

Greenleaf PeninsulaWaco, TX 76710

Lat: 31.565, Lon: -97.198

Elevation: 570

Station Type: Ambient WS2080

http://johnchamber.dyndns.info/

High Low Average
Temperature 77.2°F25.1°F 59.0°F15.0°F 67.8°F19.9°F
Dew Point 73.4°F23.0°F 38.0°F3.3°F 55.8°F13.2°F
Winds 11.5 mph NW18.5 mph NW Calm Calm 2.8 mph 4.5 mph
Wind Gusts 22.4 mph36.0 mph -- 6.6 mph10.6 mph
Humidity 98% 28% 70%
Pressure 29.58 in1001.70 in 29.31 in992.60 in -
Precipitation 13.92 in353.60 in - -
Hour Temp Dew Point Humidity Winds Wind Gusts Pressure Precip Precip Rate Daily Precip Total
12:00 AM 77.2°F25.1°C 70.9°F21.6°C 81% 6.2 mph S10.0 kmh S 12.3 mph19.8 kmh 29.32 in992.9 mb 0.00 in0.0 mm 0.00 in0.0 mm 0.00 in0.0 mm
12:05 AM 77.2°F25.1°C 70.9°F21.6°C 81% 6.3 mph SSE10.1 kmh SSE 9.8 mph15.8 kmh 29.32 in992.9 mb 0.00 in0.0 mm 0.00 in0.0 mm 0.00 in0.0 mm
12:10 AM 77.2°F25.1°C 70.9°F21.6°C 81% 9.8 mph SSE15.8 kmh SSE 15.0 mph24.1 kmh 29.32 in992.9 mb 0.00 in0.0 mm 0.00 in0.0 mm 0.00 in0.0 mm
12:15 AM 77.2°F25.1°C 70.9°F21.6°C 81% 7.4 mph SSE11.9 kmh SSE 12.3 mph19.8 kmh 29.32 in992.9 mb 0.00 in0.0 mm 0.00 in0.0 mm 0.00 in0.0 mm
12:20 AM 77.2°F25.1°C 71.0°F21.7°C 81% 4.3 mph S6.9 kmh S 7.4 mph11.9 kmh 29.32 in992.9 mb 0.00 in0.0 mm 0.00 in0.0 mm 0.00 in0.0 mm
12:25 AM 77.2°F25.1°C 71.6°F22.0°C 83% 7.5 mph SSE12.1 kmh SSE 15.0 mph24.1 kmh 29.32 in992.9 mb 0.00 in0.0 mm 0.00 in0.0 mm 0.00 in0.0 mm
12:30 AM 77.2°F25.1°C 72.2°F22.3°C 85% 8.3 mph S13.4 kmh S 17.4 mph28.0 kmh 29.31 in992.6 mb 0.00 in0.0 mm 0.00 in0.0 mm 0.00 in0.0 mm
12:35 AM 77.2°F25.1°C 72.7°F22.6°C 86% 6.6 mph S10.6 kmh S 9.8 mph15.8 kmh 29.31 in992.6 mb 0.00 in0.0 mm 0.00 in0.0 mm 0.00 in0.0 mm
12:40 AM 77.2°F25.1°C 72.9°F22.7°C 87% 5.9 mph SSE9.5 kmh SSE 9.8 mph15.8 kmh 29.31 in992.6 mb 0.00 in0.0 mm 0.00 in0.0 mm 0.00 in0.0 mm
12:45 AM 77.2°F25.1°C 73.0°F22.8°C 87% 7.5 mph S12.1 kmh S 17.4 mph28.0 kmh 29.32 in992.9 mb 0.00 in0.0 mm 0.00 in0.0 mm 0.00 in0.0 mm
12:50 AM 77.2°F25.1°C 73.0°F22.8°C 87% 8.2 mph S13.2 kmh S 12.3 mph19.8 kmh 29.31 in992.6 mb 0.00 in0.0 mm 0.00 in0.0 mm 0.00 in0.0 mm
12:55 AM 77.2°F25.1°C 73.0°F22.8°C 87% 7.6 mph SSE12.2 kmh SSE 12.3 mph19.8 kmh 29.32 in992.9 mb 0.00 in0.0 mm 0.00 in0.0 mm 0.00 in0.0 mm
01:00 AM 77.2°F25.1°C 73.0°F22.8°C 87% 6.7 mph SSE10.8 kmh SSE 12.3 mph19.8 kmh 29.32 in992.9 mb 0.00 in0.0 mm 0.00 in0.0 mm 0.00 in0.0 mm
01:05 AM 77.2°F25.1°C 73.0°F22.8°C 87% 5.9 mph SSE9.5 kmh SSE 12.3 mph19.8 kmh 29.32 in992.9 mb 0.00 in0.0 mm 0.00 in0.0 mm 0.00 in0.0 mm
01:10 AM 77.2°F25.1°C 73.0°F22.8°C 87% 7.6 mph SSE12.2 kmh SSE 17.4 mph28.0 kmh 29.32 in992.9 mb 0.00 in0.0 mm 0.00 in0.0 mm 0.00 in0.0 mm
01:15 AM 77.2°F25.1°C 73.0°F22.8°C 87% 7.9 mph SSE12.7 kmh SSE 15.0 mph24.1 kmh 29.32 in992.9 mb 0.00 in0.0 mm 0.00 in0.0 mm 0.00 in0.0 mm
01:20 AM 77.2°F25.1°C 73.0°F22.8°C 87% 6.0 mph SSE9.7 kmh SSE 12.3 mph19.8 kmh 29.32 in992.9 mb 0.00 in0.0 mm 0.00 in0.0 mm 0.00 in0.0 mm
01:25 AM 77.2°F25.1°C 73.0°F22.8°C 87% 8.7 mph SSE14.0 kmh SSE 15.0 mph24.1 kmh 29.32 in992.9 mb 0.00 in0.0 mm 0.00 in0.0 mm 0.00 in0.0 mm
01:30 AM 77.2°F25.1°C 73.0°F22.8°C 87% 9.4 mph S15.1 kmh S 15.0 mph24.1 kmh 29.32 in992.9 mb 0.00 in0.0 mm 0.00 in0.0 mm 0.00 in0.0 mm
01:35 AM 77.1°F25.1°C 72.9°F22.7°C 87% 9.5 mph SSE15.3 kmh SSE 15.0 mph24.1 kmh 29.32 in992.9 mb 0.00 in0.0 mm 0.00 in0.0 mm 0.00 in0.0 mm
01:40 AM 77.0°F25.0°C 72.8°F22.7°C 87% 9.3 mph S15.0 kmh S 17.4 mph28.0 kmh 29.32 in992.9 mb 0.00 in0.0 mm 0.00 in0.0 mm 0.00 in0.0 mm
01:45 AM 77.0°F25.0°C 72.8°F22.7°C 87% 8.8 mph S14.2 kmh S 19.9 mph32.0 kmh 29.32 in992.9 mb 0.00 in0.0 mm 0.00 in0.0 mm 0.00 in0.0 mm
01:50 AM 77.0°F25.0°C 72.8°F22.7°C 87% 8.9 mph SE14.3 kmh SE 15.0 mph24.1 kmh 29.32 in992.9 mb 0.00 in0.0 mm 0.00 in0.0 mm 0.00 in0.0 mm
01:55 AM 77.0°F25.0°C 72.8°F22.7°C 87% 7.9 mph S12.7 kmh S 17.4 mph28.0 kmh 29.32 in992.9 mb 0.00 in0.0 mm 0.00 in0.0 mm 0.00 in0.0 mm
02:00 AM 77.0°F25.0°C 72.8°F22.7°C 87% 6.0 mph SSE9.7 kmh SSE 12.3 mph19.8 kmh 29.32 in992.9 mb 0.00 in0.0 mm 0.00 in0.0 mm 0.00 in0.0 mm
02:05 AM 76.9°F24.9°C 72.9°F22.7°C 87% 5.9 mph SSE9.5 kmh SSE 9.8 mph15.8 kmh 29.32 in992.9 mb 0.00 in0.0 mm 0.00 in0.0 mm 0.00 in0.0 mm
02:10 AM 76.8°F24.9°C 73.1°F22.8°C 88% 7.8 mph S12.6 kmh S 17.4 mph28.0 kmh 29.33 in993.2 mb 0.00 in0.0 mm 0.00 in0.0 mm 0.00 in0.0 mm
02:15 AM 76.8°F24.9°C 73.1°F22.8°C 88% 5.4 mph S8.7 kmh S 12.3 mph19.8 kmh 29.33 in993.2 mb 0.00 in0.0 mm 0.00 in0.0 mm 0.00 in0.0 mm
02:20 AM 76.9°F24.9°C 72.7°F22.6°C 87% 6.3 mph S10.1 kmh S 9.8 mph15.8 kmh 29.33 in993.2 mb 0.00 in0.0 mm 0.00 in0.0 mm 0.00 in0.0 mm
02:25 AM 77.0°F25.0°C 72.8°F22.7°C 87% 3.4 mph S5.5 kmh S 9.8 mph15.8 kmh 29.34 in993.6 mb 0.00 in0.0 mm 0.00 in0.0 mm 0.00 in0.0 mm
02:30 AM 77.0°F25.0°C 72.8°F22.7°C 87% 4.0 mph SSE6.4 kmh SSE 7.4 mph11.9 kmh 29.34 in993.6 mb 0.00 in0.0 mm 0.00 in0.0 mm 0.00 in0.0 mm
02:35 AM 77.0°F25.0°C 72.8°F22.7°C 87% 6.7 mph SE10.8 kmh SE 12.3 mph19.8 kmh 29.34 in993.6 mb 0.00 in0.0 mm 0.00 in0.0 mm 0.00 in0.0 mm
02:40 AM 77.0°F25.0°C 72.8°F22.7°C 87% 6.3 mph SSE10.1 kmh SSE 9.8 mph15.8 kmh 29.34 in993.6 mb 0.00 in0.0 mm 0.00 in0.0 mm 0.00 in0.0 mm
02:45 AM 77.0°F25.0°C 72.8°F22.7°C 87% 5.4 mph S8.7 kmh S 9.8 mph15.8 kmh 29.34 in993.6 mb 0.00 in0.0 mm 0.00 in0.0 mm 0.00 in0.0 mm
02:50 AM 77.0°F25.0°C 72.8°F22.7°C 87% 4.8 mph SSE7.7 kmh SSE 9.8 mph15.8 kmh 29.34 in993.6 mb 0.00 in0.0 mm 0.00 in0.0 mm 0.00 in0.0 mm
02:55 AM 77.0°F25.0°C 72.8°F22.7°C 87% 5.3 mph SSE8.5 kmh SSE 9.8 mph15.8 kmh 29.34 in993.6 mb 0.00 in0.0 mm 0.00 in0.0 mm 0.00 in0.0 mm
03:00 AM 77.0°F25.0°C 72.8°F22.7°C 87% 3.3 mph SSE5.3 kmh SSE 7.4 mph11.9 kmh 29.34 in993.6 mb 0.00 in0.0 mm 0.00 in0.0 mm 0.00 in0.0 mm
03:05 AM 77.0°F25.0°C 73.0°F22.8°C 88% 5.2 mph S8.4 kmh S 9.8 mph15.8 kmh 29.34 in993.6 mb 0.00 in0.0 mm 0.00 in0.0 mm 0.00 in0.0 mm
03:10 AM 77.0°F25.0°C 73.2°F22.9°C 88% 5.0 mph SSW8.0 kmh SSW 9.8 mph15.8 kmh 29.34 in993.6 mb 0.00 in0.0 mm 0.00 in0.0 mm 0.00 in0.0 mm
03:15 AM 77.0°F25.0°C 73.2°F22.9°C 88% 1.9 mph S3.1 kmh S 4.9 mph7.9 kmh 29.34 in993.6 mb 0.00 in0.0 mm 0.00 in0.0 mm 0.00 in0.0 mm
03:20 AM 76.8°F24.9°C 73.4°F23.0°C 89% 1.0 mph WSW1.6 kmh WSW 4.9 mph7.9 kmh 29.35 in993.9 mb 0.00 in0.0 mm 0.00 in0.0 mm 0.00 in0.0 mm
03:25 AM 76.7°F24.8°C 71.6°F22.0°C 85% 7.2 mph NW11.6 kmh NW 19.9 mph32.0 kmh 29.37 in994.6 mb 0.00 in0.0 mm 0.00 in0.0 mm 0.00 in0.0 mm
03:30 AM 75.8°F24.3°C 64.9°F18.3°C 69% 7.8 mph NW12.6 kmh NW 15.0 mph24.1 kmh 29.38 in994.9 mb 0.00 in0.0 mm 0.00 in0.0 mm 0.00 in0.0 mm
03:35 AM 74.7°F23.7°C 64.2°F17.9°C 70% 5.9 mph NNW9.5 kmh NNW 17.4 mph28.0 kmh 29.38 in994.9 mb 0.00 in0.0 mm 0.00 in0.0 mm 0.00 in0.0 mm
03:40 AM 73.5°F23.1°C 63.7°F17.6°C 72% 11.5 mph NW18.5 kmh NW 22.4 mph36.0 kmh 29.38 in994.9 mb 0.00 in0.0 mm 0.00 in0.0 mm 0.00 in0.0 mm
03:45 AM 67.4°F19.7°C 59.5°F15.3°C 76% 7.2 mph NW11.6 kmh NW 15.0 mph24.1 kmh 29.39 in995.3 mb 0.00 in0.0 mm 0.00 in0.0 mm 0.00 in0.0 mm
03:50 AM 67.1°F19.5°C 61.3°F16.3°C 82% 8.4 mph NW13.5 kmh NW 17.4 mph28.0 kmh 29.39 in995.3 mb 0.01 in0.3 mm 0.12 in3.0 mm 0.01 in0.3 mm
03:55 AM 66.6°F19.2°C 62.4°F16.9°C 86% 5.2 mph NW8.4 kmh NW 9.8 mph15.8 kmh 29.40 in995.6 mb 0.06 in1.5 mm 0.60 in15.2 mm 0.06 in1.5 mm
04:00 AM 66.0°F18.9°C 62.6°F17.0°C 89% 4.0 mph NW6.4 kmh NW 7.4 mph11.9 kmh 29.39 in995.3 mb 0.12 in3.0 mm 0.07 in1.8 mm 0.12 in3.0 mm
04:05 AM 63.2°F17.3°C 60.3°F15.7°C 90% 4.4 mph NNW7.1 kmh NNW 9.8 mph15.8 kmh 29.39 in995.3 mb 0.15 in3.8 mm 0.36 in9.1 mm 0.15 in3.8 mm
04:10 AM 63.1°F17.3°C 60.8°F16.0°C 92% 2.5 mph NW4.0 kmh NW 4.9 mph7.9 kmh 29.38 in994.9 mb 0.19 in4.8 mm 0.48 in12.2 mm 0.19 in4.8 mm
04:15 AM 62.9°F17.2°C 60.8°F16.0°C 93% 1.3 mph N2.1 kmh N 4.9 mph7.9 kmh 29.39 in995.3 mb 0.26 in6.6 mm 0.84 in21.3 mm 0.26 in6.6 mm
04:20 AM 62.5°F16.9°C 60.6°F15.9°C 94% 2.0 mph NW3.2 kmh NW 4.9 mph7.9 kmh 29.40 in995.6 mb 0.39 in9.9 mm 1.56 in39.6 mm 0.39 in9.9 mm
04:25 AM 61.3°F16.3°C 59.6°F15.3°C 94% 1.4 mph NNW2.3 kmh NNW 4.9 mph7.9 kmh 29.39 in995.3 mb 0.53 in13.5 mm 1.68 in42.7 mm 0.53 in13.5 mm
04:30 AM 61.3°F16.3°C 59.7°F15.4°C 94% 3.4 mph NW5.5 kmh NW 7.4 mph11.9 kmh 29.39 in995.3 mb 0.64 in16.3 mm 1.32 in33.5 mm 0.64 in16.3 mm
04:35 AM 61.3°F16.3°C 59.9°F15.5°C 95% 2.4 mph NW3.9 kmh NW 7.4 mph11.9 kmh 29.39 in995.3 mb 0.74 in18.8 mm 1.20 in30.5 mm 0.74 in18.8 mm
04:40 AM 61.3°F16.3°C 59.9°F15.5°C 95% 1.1 mph NW1.8 kmh NW 4.9 mph7.9 kmh 29.41 in995.9 mb 0.83 in21.1 mm 1.08 in27.4 mm 0.83 in21.1 mm
04:45 AM 61.3°F16.3°C 59.9°F15.5°C 95% 3.3 mph N5.3 kmh N 7.4 mph11.9 kmh 29.40 in995.6 mb 0.92 in23.4 mm 1.08 in27.4 mm 0.92 in23.4 mm
04:50 AM 61.3°F16.3°C 60.0°F15.6°C 96% 1.7 mph NNW2.7 kmh NNW 4.9 mph7.9 kmh 29.41 in995.9 mb 0.98 in24.9 mm 0.72 in18.3 mm 0.99 in25.1 mm
04:55 AM 61.3°F16.3°C 60.1°F15.6°C 96% 1.9 mph N3.1 kmh N 4.9 mph7.9 kmh 29.39 in995.3 mb 0.98 in24.9 mm 0.00 in0.0 mm 1.04 in26.4 mm
05:00 AM 61.2°F16.2°C 60.0°F15.6°C 96% 1.6 mph NNE2.6 kmh NNE 4.9 mph7.9 kmh 29.39 in995.3 mb 0.96 in24.4 mm 0.00 in0.0 mm 1.08 in27.4 mm
05:05 AM 61.0°F16.1°C 59.8°F15.4°C 96% 2.6 mph NE4.2 kmh NE 7.4 mph11.9 kmh 29.40 in995.6 mb 0.96 in24.4 mm 0.00 in0.0 mm 1.11 in28.2 mm
05:10 AM 61.0°F16.1°C 59.8°F15.4°C 96% 3.6 mph NE5.8 kmh NE 9.8 mph15.8 kmh 29.39 in995.3 mb 0.93 in23.6 mm 0.00 in0.0 mm 1.12 in28.4 mm
05:15 AM 61.1°F16.2°C 59.9°F15.5°C 96% 3.0 mph ENE4.8 kmh ENE 7.4 mph11.9 kmh 29.37 in994.6 mb 0.89 in22.6 mm 0.00 in0.0 mm 1.15 in29.2 mm
05:20 AM 61.0°F16.1°C 60.0°F15.6°C 96% 2.6 mph SE4.2 kmh SE 4.9 mph7.9 kmh 29.40 in995.6 mb 0.76 in19.3 mm 0.00 in0.0 mm 1.15 in29.2 mm
05:25 AM 60.9°F16.1°C 60.0°F15.6°C 97% 1.0 mph SW1.6 kmh SW 2.5 mph4.0 kmh 29.41 in995.9 mb 0.62 in15.7 mm 0.00 in0.0 mm 1.15 in29.2 mm
05:30 AM 60.8°F16.0°C 59.9°F15.5°C 97% 0.5 mph NNW0.8 kmh NNW 2.5 mph4.0 kmh 29.41 in995.9 mb 0.52 in13.2 mm 0.00 in0.0 mm 1.16 in29.5 mm
05:35 AM 61.0°F16.1°C 60.1°F15.6°C 97% 0.7 mph N1.1 kmh N 4.9 mph7.9 kmh 29.41 in995.9 mb 0.42 in10.7 mm 0.00 in0.0 mm 1.16 in29.5 mm
05:40 AM 61.0°F16.1°C 60.1°F15.6°C 97% 1.6 mph NE2.6 kmh NE 4.9 mph7.9 kmh 29.41 in995.9 mb 0.33 in8.4 mm 0.00 in0.0 mm 1.16 in29.5 mm
05:45 AM 61.2°F16.2°C 60.3°F15.7°C 97% 1.1 mph SW1.8 kmh SW 4.9 mph7.9 kmh 29.44 in997.0 mb 0.24 in6.1 mm 0.00 in0.0 mm 1.16 in29.5 mm
05:50 AM 61.2°F16.2°C 60.3°F15.7°C 97% 0.8 mph NW1.3 kmh NW 2.5 mph4.0 kmh 29.45 in997.3 mb 0.17 in4.3 mm 0.00 in0.0 mm 1.16 in29.5 mm
05:55 AM 61.2°F16.2°C 60.3°F15.7°C 97% 1.4 mph N2.3 kmh N 4.9 mph7.9 kmh 29.43 in996.6 mb 0.12 in3.0 mm 0.00 in0.0 mm 1.16 in29.5 mm
06:00 AM 61.2°F16.2°C 60.3°F15.7°C 97% 0.4 mph N0.6 kmh N 2.5 mph4.0 kmh 29.44 in997.0 mb 0.08 in2.0 mm 0.00 in0.0 mm 1.16 in29.5 mm
06:05 AM 61.4°F16.3°C 60.5°F15.8°C 97% 2.9 mph N4.7 kmh N 7.4 mph11.9 kmh 29.43 in996.6 mb 0.05 in1.3 mm 0.00 in0.0 mm 1.16 in29.5 mm
06:10 AM 61.5°F16.4°C 60.6°F15.9°C 97% 1.9 mph N3.1 kmh N 4.9 mph7.9 kmh 29.42 in996.3 mb 0.04 in1.0 mm 0.00 in0.0 mm 1.16 in29.5 mm
06:15 AM 61.5°F16.4°C 60.9°F16.1°C 98% 1.3 mph NNE2.1 kmh NNE 4.9 mph7.9 kmh 29.45 in997.3 mb 0.01 in0.3 mm 0.00 in0.0 mm 1.16 in29.5 mm
06:20 AM 61.5°F16.4°C 60.9°F16.1°C 98% 0.2 mph NE0.3 kmh NE 2.5 mph4.0 kmh 29.45 in997.3 mb 0.01 in0.3 mm 0.00 in0.0 mm 1.16 in29.5 mm
06:25 AM 61.4°F16.3°C 60.8°F16.0°C 98% 0.5 mph NW0.8 kmh NW 4.9 mph7.9 kmh 29.45 in997.3 mb 0.01 in0.3 mm 0.00 in0.0 mm 1.16 in29.5 mm
06:30 AM 61.3°F16.3°C 60.7°F15.9°C 98% 2.6 mph N4.2 kmh N 7.4 mph11.9 kmh 29.44 in997.0 mb 0.00 in0.0 mm 0.00 in0.0 mm 1.16 in29.5 mm
06:35 AM 61.3°F16.3°C 60.7°F15.9°C 98% 2.0 mph NNE3.2 kmh NNE 4.9 mph7.9 kmh 29.43 in996.6 mb 0.00 in0.0 mm 0.00 in0.0 mm 1.16 in29.5 mm
06:40 AM 61.3°F16.3°C 60.7°F15.9°C 98% 1.5 mph N2.4 kmh N 4.9 mph7.9 kmh 29.41 in995.9 mb 0.00 in0.0 mm 0.00 in0.0 mm 1.16 in29.5 mm
06:45 AM 61.4°F16.3°C 60.8°F16.0°C 98% Calm Calm 2.5 mph4.0 kmh 29.45 in997.3 mb 0.00 in0.0 mm 0.00 in0.0 mm 1.16 in29.5 mm
06:50 AM 61.5°F16.4°C 60.9°F16.1°C 98% 0.8 mph N1.3 kmh N 4.9 mph7.9 kmh 29.45 in997.3 mb 0.00 in0.0 mm 0.00 in0.0 mm 1.16 in29.5 mm
06:55 AM 61.5°F16.4°C 60.9°F16.1°C 98% 3.2 mph NE5.1 kmh NE 7.4 mph11.9 kmh 29.43 in996.6 mb 0.00 in0.0 mm 0.00 in0.0 mm 1.16 in29.5 mm
07:00 AM 61.4°F16.3°C 60.8°F16.0°C 98% 0.3 mph SW0.5 kmh SW 2.5 mph4.0 kmh 29.46 in997.6 mb 0.00 in0.0 mm 0.00 in0.0 mm 1.16 in29.5 mm
07:05 AM 61.5°F16.4°C 61.0°F16.1°C 98% 0.3 mph SW0.5 kmh SW 2.5 mph4.0 kmh 29.49 in998.6 mb 0.00 in0.0 mm 0.00 in0.0 mm 1.16 in29.5 mm
07:10 AM 61.7°F16.5°C 61.1°F16.2°C 98% 0.9 mph NNE1.4 kmh NNE 2.5 mph4.0 kmh 29.47 in998.0 mb 0.00 in0.0 mm 0.00 in0.0 mm 1.16 in29.5 mm
07:15 AM 61.7°F16.5°C 61.1°F16.2°C 98% Calm Calm -- 29.48 in998.3 mb 0.00 in0.0 mm 0.00 in0.0 mm 1.16 in29.5 mm
07:20 AM 61.7°F16.5°C 61.1°F16.2°C 98% Calm Calm -- 29.48 in998.3 mb 0.00 in0.0 mm 0.00 in0.0 mm 1.16 in29.5 mm
07:25 AM 61.5°F16.4°C 60.9°F16.1°C 98% 0.8 mph NW1.3 kmh NW 4.9 mph7.9 kmh 29.48 in998.3 mb 0.00 in0.0 mm 0.00 in0.0 mm 1.16 in29.5 mm
07:30 AM 61.3°F16.3°C 60.7°F15.9°C 98% 0.5 mph NW0.8 kmh NW 2.5 mph4.0 kmh 29.48 in998.3 mb 0.00 in0.0 mm 0.00 in0.0 mm 1.16 in29.5 mm
07:35 AM 61.3°F16.3°C 60.7°F15.9°C 98% 0.3 mph N0.5 kmh N 2.5 mph4.0 kmh 29.47 in998.0 mb 0.00 in0.0 mm 0.00 in0.0 mm 1.16 in29.5 mm
07:40 AM 61.5°F16.4°C 60.9°F16.1°C 98% Calm Calm 2.5 mph4.0 kmh 29.47 in998.0 mb 0.00 in0.0 mm 0.00 in0.0 mm 1.16 in29.5 mm
07:45 AM 61.6°F16.4°C 61.0°F16.1°C 98% 0.5 mph N0.8 kmh N 2.5 mph4.0 kmh 29.47 in998.0 mb 0.00 in0.0 mm 0.00 in0.0 mm 1.16 in29.5 mm
07:50 AM 61.7°F16.5°C 61.1°F16.2°C 98% 0.2 mph NW0.3 kmh NW 2.5 mph4.0 kmh 29.48 in998.3 mb 0.00 in0.0 mm 0.00 in0.0 mm 1.16 in29.5 mm
07:55 AM 61.7°F16.5°C 61.1°F16.2°C 98% 0.3 mph NW0.5 kmh NW 2.5 mph4.0 kmh 29.48 in998.3 mb 0.00 in0.0 mm 0.00 in0.0 mm 1.16 in29.5 mm
08:00 AM 61.7°F16.5°C 61.1°F16.2°C 98% 0.2 mph NNW0.3 kmh NNW 2.5 mph4.0 kmh 29.49 in998.6 mb 0.00 in0.0 mm 0.00 in0.0 mm 1.16 in29.5 mm
08:05 AM 61.7°F16.5°C 61.1°F16.2°C 98% 0.9 mph N1.4 kmh N 4.9 mph7.9 kmh 29.49 in998.6 mb 0.00 in0.0 mm 0.00 in0.0 mm 1.16 in29.5 mm
08:10 AM 61.7°F16.5°C 61.1°F16.2°C 98% 1.0 mph NW1.6 kmh NW 4.9 mph7.9 kmh 29.50 in999.0 mb 0.00 in0.0 mm 0.00 in0.0 mm 1.16 in29.5 mm
08:15 AM 61.7°F16.5°C 61.1°F16.2°C 98% Calm Calm 2.5 mph4.0 kmh 29.50 in999.0 mb 0.00 in0.0 mm 0.00 in0.0 mm 1.16 in29.5 mm
08:20 AM 61.7°F16.5°C 61.1°F16.2°C 98% 0.1 mph NW0.2 kmh NW 2.5 mph4.0 kmh 29.50 in999.0 mb 0.00 in0.0 mm 0.00 in0.0 mm 1.16 in29.5 mm
08:25 AM 61.8°F16.6°C 61.2°F16.2°C 98% 1.2 mph NW1.9 kmh NW 4.9 mph7.9 kmh 29.51 in999.3 mb 0.00 in0.0 mm 0.00 in0.0 mm 1.16 in29.5 mm
08:30 AM 61.9°F16.6°C 61.3°F16.3°C 98% 0.3 mph N0.5 kmh N 2.5 mph4.0 kmh 29.51 in999.3 mb 0.00 in0.0 mm 0.00 in0.0 mm 1.16 in29.5 mm
08:35 AM 61.9°F16.6°C 61.3°F16.3°C 98% 0.8 mph N1.3 kmh N 4.9 mph7.9 kmh 29.51 in999.3 mb 0.00 in0.0 mm 0.00 in0.0 mm 1.16 in29.5 mm
08:40 AM 61.9°F16.6°C 61.3°F16.3°C 98% 1.7 mph NW2.7 kmh NW 4.9 mph7.9 kmh 29.51 in999.3 mb 0.00 in0.0 mm 0.00 in0.0 mm 1.16 in29.5 mm
08:45 AM 61.9°F16.6°C 61.4°F16.3°C 98% 0.4 mph NW0.6 kmh NW 2.5 mph4.0 kmh 29.51 in999.3 mb 0.00 in0.0 mm 0.00 in0.0 mm 1.16 in29.5 mm
08:50 AM 62.1°F16.7°C 61.5°F16.4°C 98% 0.8 mph N1.3 kmh N 2.5 mph4.0 kmh 29.52 in999.7 mb 0.00 in0.0 mm 0.00 in0.0 mm 1.16 in29.5 mm
08:55 AM 62.1°F16.7°C 61.5°F16.4°C 98% 0.6 mph NW1.0 kmh NW 2.5 mph4.0 kmh 29.52 in999.7 mb 0.00 in0.0 mm 0.00 in0.0 mm 1.16 in29.5 mm
09:00 AM 62.1°F16.7°C 61.5°F16.4°C 98% 0.4 mph WNW0.6 kmh WNW 2.5 mph4.0 kmh 29.53 in1000.0 mb 0.00 in0.0 mm 0.00 in0.0 mm 1.16 in29.5 mm
09:05 AM 62.1°F16.7°C 61.5°F16.4°C 98% 0.4 mph NNW0.6 kmh NNW 2.5 mph4.0 kmh 29.53 in1000.0 mb 0.00 in0.0 mm 0.00 in0.0 mm 1.16 in29.5 mm
09:10 AM 62.2°F16.8°C 61.6°F16.4°C 98% 0.5 mph NNW0.8 kmh NNW 4.9 mph7.9 kmh 29.53 in1000.0 mb 0.00 in0.0 mm 0.00 in0.0 mm 1.16 in29.5 mm
09:15 AM 62.2°F16.8°C 61.5°F16.4°C 98% 0.6 mph NNW1.0 kmh NNW 2.5 mph4.0 kmh 29.54 in1000.3 mb 0.00 in0.0 mm 0.00 in0.0 mm 1.16 in29.5 mm
09:20 AM 62.2°F16.8°C 61.6°F16.4°C 98% 0.6 mph N1.0 kmh N 2.5 mph4.0 kmh 29.53 in1000.0 mb 0.00 in0.0 mm 0.00 in0.0 mm 1.16 in29.5 mm
09:25 AM 62.3°F16.8°C 61.6°F16.4°C 98% 1.3 mph NW2.1 kmh NW 4.9 mph7.9 kmh 29.53 in1000.0 mb 0.00 in0.0 mm 0.00 in0.0 mm 1.16 in29.5 mm
09:30 AM 62.6°F17.0°C 61.7°F16.5°C 97% Calm Calm -- 29.54 in1000.3 mb 0.00 in0.0 mm 0.00 in0.0 mm 1.16 in29.5 mm
09:35 AM 62.6°F17.0°C 61.7°F16.5°C 97% Calm Calm 2.5 mph4.0 kmh 29.54 in1000.3 mb 0.00 in0.0 mm 0.00 in0.0 mm 1.16 in29.5 mm
09:40 AM 62.6°F17.0°C 61.8°F16.6°C 97% 1.0 mph WNW1.6 kmh WNW 2.5 mph4.0 kmh 29.54 in1000.3 mb 0.00 in0.0 mm 0.00 in0.0 mm 1.16 in29.5 mm
09:45 AM 62.6°F17.0°C 61.7°F16.5°C 97% 0.5 mph W0.8 kmh W 4.9 mph7.9 kmh 29.54 in1000.3 mb 0.00 in0.0 mm 0.00 in0.0 mm 1.16 in29.5 mm
09:50 AM 62.7°F17.1°C 61.9°F16.6°C 97% 2.1 mph NW3.4 kmh NW 4.9 mph7.9 kmh 29.54 in1000.3 mb 0.00 in0.0 mm 0.00 in0.0 mm 1.16 in29.5 mm
09:55 AM 62.8°F17.1°C 62.1°F16.7°C 98% 0.9 mph NW1.4 kmh NW 2.5 mph4.0 kmh 29.54 in1000.3 mb 0.00 in0.0 mm 0.00 in0.0 mm 1.16 in29.5 mm
10:00 AM 62.9°F17.2°C 62.1°F16.7°C 97% 0.6 mph W1.0 kmh W 2.5 mph4.0 kmh 29.55 in1000.7 mb 0.00 in0.0 mm 0.00 in0.0 mm 1.16 in29.5 mm
10:05 AM 63.2°F17.3°C 62.3°F16.8°C 97% 1.1 mph NW1.8 kmh NW 2.5 mph4.0 kmh 29.54 in1000.3 mb 0.00 in0.0 mm 0.00 in0.0 mm 1.16 in29.5 mm
10:10 AM 63.9°F17.7°C 63.3°F17.4°C 98% 0.9 mph W1.4 kmh W 7.4 mph11.9 kmh 29.55 in1000.7 mb 0.00 in0.0 mm 0.00 in0.0 mm 1.16 in29.5 mm
10:15 AM 63.8°F17.7°C 62.6°F17.0°C 96% 1.2 mph NNW1.9 kmh NNW 4.9 mph7.9 kmh 29.55 in1000.7 mb 0.00 in0.0 mm 0.00 in0.0 mm 1.16 in29.5 mm
10:20 AM 63.7°F17.6°C 62.5°F16.9°C 96% 1.3 mph N2.1 kmh N 4.9 mph7.9 kmh 29.54 in1000.3 mb 0.00 in0.0 mm 0.00 in0.0 mm 1.16 in29.5 mm
10:25 AM 63.7°F17.6°C 62.8°F17.1°C 97% 0.9 mph NW1.4 kmh NW 4.9 mph7.9 kmh 29.55 in1000.7 mb 0.00 in0.0 mm 0.00 in0.0 mm 1.16 in29.5 mm
10:30 AM 64.9°F18.3°C 64.3°F17.9°C 98% 1.1 mph WNW1.8 kmh WNW 4.9 mph7.9 kmh 29.55 in1000.7 mb 0.00 in0.0 mm 0.00 in0.0 mm 1.16 in29.5 mm
10:35 AM 64.9°F18.3°C 64.0°F17.8°C 97% 1.6 mph WNW2.6 kmh WNW 4.9 mph7.9 kmh 29.55 in1000.7 mb 0.00 in0.0 mm 0.00 in0.0 mm 1.16 in29.5 mm
10:40 AM 64.9°F18.3°C 63.9°F17.7°C 97% 2.0 mph WNW3.2 kmh WNW 4.9 mph7.9 kmh 29.54 in1000.3 mb 0.00 in0.0 mm 0.00 in0.0 mm 1.16 in29.5 mm
10:45 AM 64.9°F18.3°C 63.6°F17.6°C 96% 1.4 mph WNW2.3 kmh WNW 4.9 mph7.9 kmh 29.55 in1000.7 mb 0.00 in0.0 mm 0.00 in0.0 mm 1.16 in29.5 mm
10:50 AM 64.2°F17.9°C 62.7°F17.1°C 95% 2.3 mph WNW3.7 kmh WNW 9.8 mph15.8 kmh 29.55 in1000.7 mb 0.00 in0.0 mm 0.00 in0.0 mm 1.16 in29.5 mm
10:55 AM 64.2°F17.9°C 62.7°F17.1°C 95% 4.0 mph NW6.4 kmh NW 9.8 mph15.8 kmh 29.55 in1000.7 mb 0.00 in0.0 mm 0.00 in0.0 mm 1.16 in29.5 mm
11:00 AM 64.4°F18.0°C 62.8°F17.1°C 94% 3.0 mph W4.8 kmh W 7.4 mph11.9 kmh 29.55 in1000.7 mb 0.00 in0.0 mm 0.00 in0.0 mm 1.16 in29.5 mm
11:05 AM 64.7°F18.2°C 62.6°F17.0°C 93% 3.0 mph W4.8 kmh W 7.4 mph11.9 kmh 29.56 in1001.0 mb 0.00 in0.0 mm 0.00 in0.0 mm 1.16 in29.5 mm
11:10 AM 65.8°F18.8°C 63.2°F17.3°C 91% 2.9 mph WNW4.7 kmh WNW 9.8 mph15.8 kmh 29.56 in1001.0 mb 0.00 in0.0 mm 0.00 in0.0 mm 1.16 in29.5 mm
11:15 AM 65.8°F18.8°C 62.5°F16.9°C 89% 3.7 mph NW6.0 kmh NW 7.4 mph11.9 kmh 29.56 in1001.0 mb 0.00 in0.0 mm 0.00 in0.0 mm 1.16 in29.5 mm
11:20 AM 65.8°F18.8°C 61.7°F16.5°C 87% 1.7 mph WNW2.7 kmh WNW 4.9 mph7.9 kmh 29.57 in1001.4 mb 0.00 in0.0 mm 0.00 in0.0 mm 1.16 in29.5 mm
11:25 AM 66.0°F18.9°C 60.9°F16.1°C 84% 3.0 mph W4.8 kmh W 7.4 mph11.9 kmh 29.56 in1001.0 mb 0.00 in0.0 mm 0.00 in0.0 mm 1.16 in29.5 mm
11:30 AM 66.4°F19.1°C 60.4°F15.8°C 81% 2.4 mph WNW3.9 kmh WNW 4.9 mph7.9 kmh 29.56 in1001.0 mb 0.00 in0.0 mm 0.00 in0.0 mm 1.16 in29.5 mm
11:35 AM 66.4°F19.1°C 59.8°F15.4°C 79% 3.1 mph NW5.0 kmh NW 7.4 mph11.9 kmh 29.57 in1001.4 mb 0.00 in0.0 mm 0.00 in0.0 mm 1.16 in29.5 mm
11:40 AM 66.6°F19.2°C 59.9°F15.5°C 79% 3.5 mph NW5.6 kmh NW 7.4 mph11.9 kmh 29.57 in1001.4 mb 0.00 in0.0 mm 0.00 in0.0 mm 1.16 in29.5 mm
11:45 AM 66.8°F19.3°C 59.6°F15.3°C 78% 2.0 mph N3.2 kmh N 4.9 mph7.9 kmh 29.57 in1001.4 mb 0.00 in0.0 mm 0.00 in0.0 mm 1.16 in29.5 mm
11:50 AM 67.6°F19.8°C 60.5°F15.8°C 78% 2.9 mph NW4.7 kmh NW 4.9 mph7.9 kmh 29.57 in1001.4 mb 0.00 in0.0 mm 0.00 in0.0 mm 1.16 in29.5 mm
11:55 AM 67.6°F19.8°C 60.5°F15.8°C 78% 4.0 mph NW6.4 kmh NW 7.4 mph11.9 kmh 29.57 in1001.4 mb 0.00 in0.0 mm 0.00 in0.0 mm 1.16 in29.5 mm
12:00 PM 67.5°F19.7°C 60.7°F15.9°C 79% 5.2 mph NW8.4 kmh NW 9.8 mph15.8 kmh 29.57 in1001.4 mb 0.00 in0.0 mm 0.00 in0.0 mm 1.16 in29.5 mm
12:05 PM 67.3°F19.6°C 60.6°F15.9°C 79% 2.0 mph N3.2 kmh N 4.9 mph7.9 kmh 29.57 in1001.4 mb 0.00 in0.0 mm 0.00 in0.0 mm 1.16 in29.5 mm
12:10 PM 67.7°F19.8°C 60.2°F15.7°C 77% 3.7 mph NW6.0 kmh NW 9.8 mph15.8 kmh 29.56 in1001.0 mb 0.00 in0.0 mm 0.00 in0.0 mm 1.16 in29.5 mm
12:15 PM 68.0°F20.0°C 59.3°F15.2°C 74% 3.3 mph NW5.3 kmh NW 9.8 mph15.8 kmh 29.57 in1001.4 mb 0.00 in0.0 mm 0.00 in0.0 mm 1.16 in29.5 mm
12:20 PM 68.1°F20.1°C 58.7°F14.8°C 72% 2.8 mph NW4.5 kmh NW 9.8 mph15.8 kmh 29.57 in1001.4 mb 0.00 in0.0 mm 0.00 in0.0 mm 1.16 in29.5 mm
12:25 PM 68.2°F20.1°C 58.8°F14.9°C 72% 2.5 mph WNW4.0 kmh WNW 7.4 mph11.9 kmh 29.57 in1001.4 mb 0.00 in0.0 mm 0.00 in0.0 mm 1.16 in29.5 mm
12:30 PM 68.7°F20.4°C 58.9°F14.9°C 71% 2.1 mph WNW3.4 kmh WNW 7.4 mph11.9 kmh 29.57 in1001.4 mb 0.00 in0.0 mm 0.00 in0.0 mm 1.16 in29.5 mm
12:35 PM 68.6°F20.3°C 59.4°F15.2°C 72% 3.5 mph NW5.6 kmh NW 7.4 mph11.9 kmh 29.56 in1001.0 mb 0.00 in0.0 mm 0.00 in0.0 mm 1.16 in29.5 mm
12:40 PM 68.5°F20.3°C 58.9°F14.9°C 72% 3.2 mph WNW5.1 kmh WNW 7.4 mph11.9 kmh 29.56 in1001.0 mb 0.00 in0.0 mm 0.00 in0.0 mm 1.16 in29.5 mm
12:45 PM 68.6°F20.3°C 57.8°F14.3°C 68% 2.3 mph W3.7 kmh W 7.4 mph11.9 kmh 29.56 in1001.0 mb 0.00 in0.0 mm 0.00 in0.0 mm 1.16 in29.5 mm
12:50 PM 69.2°F20.7°C 57.9°F14.4°C 67% 1.7 mph NW2.7 kmh NW 4.9 mph7.9 kmh 29.56 in1001.0 mb 0.00 in0.0 mm 0.00 in0.0 mm 1.16 in29.5 mm
12:55 PM 69.6°F20.9°C 56.9°F13.8°C 64% 2.8 mph NW4.5 kmh NW 7.4 mph11.9 kmh 29.55 in1000.7 mb 0.00 in0.0 mm 0.00 in0.0 mm 1.16 in29.5 mm
01:00 PM 69.8°F21.0°C 56.8°F13.8°C 64% 1.4 mph NW2.3 kmh NW 4.9 mph7.9 kmh 29.55 in1000.7 mb 0.00 in0.0 mm 0.00 in0.0 mm 1.16 in29.5 mm
01:05 PM 70.0°F21.1°C 56.2°F13.4°C 62% 4.0 mph NW6.4 kmh NW 9.8 mph15.8 kmh 29.55 in1000.7 mb 0.00 in0.0 mm 0.00 in0.0 mm 1.16 in29.5 mm
01:10 PM 70.2°F21.2°C 57.0°F13.9°C 63% 2.9 mph NW4.7 kmh NW 7.4 mph11.9 kmh 29.55 in1000.7 mb 0.00 in0.0 mm 0.00 in0.0 mm 1.16 in29.5 mm
01:15 PM 70.5°F21.4°C 56.0°F13.3°C 60% 3.4 mph NW5.5 kmh NW 9.8 mph15.8 kmh 29.54 in1000.3 mb 0.00 in0.0 mm 0.00 in0.0 mm 1.16 in29.5 mm
01:20 PM 70.8°F21.6°C 55.4°F13.0°C 58% 2.8 mph NW4.5 kmh NW 7.4 mph11.9 kmh 29.55 in1000.7 mb 0.00 in0.0 mm 0.00 in0.0 mm 1.16 in29.5 mm
01:25 PM 71.0°F21.7°C 55.5°F13.1°C 58% 1.7 mph WNW2.7 kmh WNW 4.9 mph7.9 kmh 29.54 in1000.3 mb 0.00 in0.0 mm 0.00 in0.0 mm 1.16 in29.5 mm
01:30 PM 71.6°F22.0°C 56.7°F13.7°C 59% 4.9 mph NW7.9 kmh NW 12.3 mph19.8 kmh 29.55 in1000.7 mb 0.00 in0.0 mm 0.00 in0.0 mm 1.16 in29.5 mm
01:35 PM 71.8°F22.1°C 57.1°F13.9°C 60% 4.1 mph NW6.6 kmh NW 9.8 mph15.8 kmh 29.54 in1000.3 mb 0.00 in0.0 mm 0.00 in0.0 mm 1.16 in29.5 mm
01:40 PM 71.8°F22.1°C 56.1°F13.4°C 58% 4.9 mph NW7.9 kmh NW 9.8 mph15.8 kmh 29.54 in1000.3 mb 0.00 in0.0 mm 0.00 in0.0 mm 1.16 in29.5 mm
01:45 PM 71.8°F22.1°C 55.3°F12.9°C 56% 4.8 mph NW7.7 kmh NW 9.8 mph15.8 kmh 29.54 in1000.3 mb 0.00 in0.0 mm 0.00 in0.0 mm 1.16 in29.5 mm
01:50 PM 72.0°F22.2°C 54.5°F12.5°C 54% 4.1 mph NW6.6 kmh NW 7.4 mph11.9 kmh 29.54 in1000.3 mb 0.00 in0.0 mm 0.00 in0.0 mm 1.16 in29.5 mm
01:55 PM 72.3°F22.4°C 53.9°F12.2°C 52% 5.6 mph NNW9.0 kmh NNW 9.8 mph15.8 kmh 29.54 in1000.3 mb 0.00 in0.0 mm 0.00 in0.0 mm 1.16 in29.5 mm
02:00 PM 72.3°F22.4°C 54.7°F12.6°C 54% 4.5 mph NW7.2 kmh NW 9.8 mph15.8 kmh 29.53 in1000.0 mb 0.00 in0.0 mm 0.00 in0.0 mm 1.16 in29.5 mm
02:05 PM 72.3°F22.4°C 54.2°F12.3°C 53% 4.3 mph WNW6.9 kmh WNW 9.8 mph15.8 kmh 29.54 in1000.3 mb 0.00 in0.0 mm 0.00 in0.0 mm 1.16 in29.5 mm
02:10 PM 72.6°F22.6°C 54.6°F12.6°C 53% 3.2 mph W5.1 kmh W 7.4 mph11.9 kmh 29.53 in1000.0 mb 0.00 in0.0 mm 0.00 in0.0 mm 1.16 in29.5 mm
02:15 PM 73.0°F22.8°C 55.0°F12.8°C 53% 3.9 mph NW6.3 kmh NW 9.8 mph15.8 kmh 29.53 in1000.0 mb 0.00 in0.0 mm 0.00 in0.0 mm 1.16 in29.5 mm
02:20 PM 73.0°F22.8°C 53.7°F12.1°C 51% 6.0 mph NW9.7 kmh NW 12.3 mph19.8 kmh 29.53 in1000.0 mb 0.00 in0.0 mm 0.00 in0.0 mm 1.16 in29.5 mm
02:25 PM 73.0°F22.8°C 54.2°F12.3°C 52% 5.3 mph WNW8.5 kmh WNW 12.3 mph19.8 kmh 29.53 in1000.0 mb 0.00 in0.0 mm 0.00 in0.0 mm 1.16 in29.5 mm
02:30 PM 73.1°F22.8°C 54.7°F12.6°C 53% 3.1 mph W5.0 kmh W 7.4 mph11.9 kmh 29.52 in999.7 mb 0.00 in0.0 mm 0.00 in0.0 mm 1.16 in29.5 mm
02:35 PM 73.2°F22.9°C 55.3°F12.9°C 54% 1.5 mph WNW2.4 kmh WNW 7.4 mph11.9 kmh 29.52 in999.7 mb 0.00 in0.0 mm 0.00 in0.0 mm 1.16 in29.5 mm
02:40 PM 73.3°F22.9°C 52.7°F11.5°C 49% 4.0 mph W6.4 kmh W 7.4 mph11.9 kmh 29.52 in999.7 mb 0.00 in0.0 mm 0.00 in0.0 mm 1.16 in29.5 mm
02:45 PM 73.4°F23.0°C 49.8°F9.9°C 43% 3.3 mph NW5.3 kmh NW 7.4 mph11.9 kmh 29.52 in999.7 mb 0.00 in0.0 mm 0.00 in0.0 mm 1.16 in29.5 mm
02:50 PM 73.7°F23.2°C 51.1°F10.6°C 45% 4.9 mph NNW7.9 kmh NNW 9.8 mph15.8 kmh 29.52 in999.7 mb 0.00 in0.0 mm 0.00 in0.0 mm 1.16 in29.5 mm
02:55 PM 73.9°F23.3°C 54.4°F12.4°C 51% 4.0 mph NNW6.4 kmh NNW 9.8 mph15.8 kmh 29.52 in999.7 mb 0.00 in0.0 mm 0.00 in0.0 mm 1.16 in29.5 mm
03:00 PM 73.9°F23.3°C 52.3°F11.3°C 47% 2.1 mph WNW3.4 kmh WNW 4.9 mph7.9 kmh 29.52 in999.7 mb 0.00 in0.0 mm 0.00 in0.0 mm 1.16 in29.5 mm
03:05 PM 74.1°F23.4°C 50.6°F10.3°C 44% 2.5 mph NW4.0 kmh NW 4.9 mph7.9 kmh 29.52 in999.7 mb 0.00 in0.0 mm 0.00 in0.0 mm 1.16 in29.5 mm
03:10 PM 74.0°F23.3°C 53.8°F12.1°C 49% 3.6 mph NW5.8 kmh NW 7.4 mph11.9 kmh 29.52 in999.7 mb 0.00 in0.0 mm 0.00 in0.0 mm 1.16 in29.5 mm
03:15 PM 73.8°F23.2°C 52.9°F11.6°C 48% 2.8 mph NW4.5 kmh NW 7.4 mph11.9 kmh 29.52 in999.7 mb 0.00 in0.0 mm 0.00 in0.0 mm 1.16 in29.5 mm
03:20 PM 73.9°F23.3°C 45.6°F7.6°C 36% 7.0 mph NW11.3 kmh NW 15.0 mph24.1 kmh 29.52 in999.7 mb 0.00 in0.0 mm 0.00 in0.0 mm 1.16 in29.5 mm
03:25 PM 73.8°F23.2°C 44.5°F6.9°C 35% 4.5 mph NNW7.2 kmh NNW 7.4 mph11.9 kmh 29.52 in999.7 mb 0.00 in0.0 mm 0.00 in0.0 mm 1.16 in29.5 mm
03:30 PM 73.8°F23.2°C 45.6°F7.6°C 37% 5.4 mph NNW8.7 kmh NNW 12.3 mph19.8 kmh 29.52 in999.7 mb 0.00 in0.0 mm 0.00 in0.0 mm 1.16 in29.5 mm
03:35 PM 73.8°F23.2°C 45.4°F7.4°C 36% 5.3 mph NW8.5 kmh NW 15.0 mph24.1 kmh 29.52 in999.7 mb 0.00 in0.0 mm 0.00 in0.0 mm 1.16 in29.5 mm
03:40 PM 73.8°F23.2°C 45.3°F7.4°C 36% 7.6 mph NW12.2 kmh NW 15.0 mph24.1 kmh 29.52 in999.7 mb 0.00 in0.0 mm 0.00 in0.0 mm 1.16 in29.5 mm
03:45 PM 73.8°F23.2°C 46.1°F7.8°C 37% 6.1 mph NNW9.8 kmh NNW 15.0 mph24.1 kmh 29.52 in999.7 mb 0.00 in0.0 mm 0.00 in0.0 mm 1.16 in29.5 mm
03:50 PM 73.6°F23.1°C 45.7°F7.6°C 37% 6.5 mph N10.5 kmh N 9.8 mph15.8 kmh 29.53 in1000.0 mb 0.00 in0.0 mm 0.00 in0.0 mm 1.16 in29.5 mm
03:55 PM 73.8°F23.2°C 46.7°F8.2°C 38% 5.9 mph NW9.5 kmh NW 12.3 mph19.8 kmh 29.52 in999.7 mb 0.00 in0.0 mm 0.00 in0.0 mm 1.16 in29.5 mm
04:00 PM 73.8°F23.2°C 45.5°F7.5°C 36% 8.2 mph NNW13.2 kmh NNW 12.3 mph19.8 kmh 29.52 in999.7 mb 0.00 in0.0 mm 0.00 in0.0 mm 1.16 in29.5 mm
04:05 PM 73.8°F23.2°C 45.2°F7.3°C 36% 6.3 mph WNW10.1 kmh WNW 12.3 mph19.8 kmh 29.52 in999.7 mb 0.00 in0.0 mm 0.00 in0.0 mm 1.16 in29.5 mm
04:10 PM 73.8°F23.2°C 45.9°F7.7°C 37% 3.9 mph NW6.3 kmh NW 7.4 mph11.9 kmh 29.52 in999.7 mb 0.00 in0.0 mm 0.00 in0.0 mm 1.16 in29.5 mm
04:15 PM 73.4°F23.0°C 46.2°F7.9°C 38% 2.8 mph NNW4.5 kmh NNW 7.4 mph11.9 kmh 29.52 in999.7 mb 0.00 in0.0 mm 0.00 in0.0 mm 1.16 in29.5 mm
04:20 PM 73.4°F23.0°C 47.2°F8.4°C 39% 3.5 mph N5.6 kmh N 9.8 mph15.8 kmh 29.52 in999.7 mb 0.00 in0.0 mm 0.00 in0.0 mm 1.16 in29.5 mm
04:25 PM 73.4°F23.0°C 46.0°F7.8°C 38% 5.9 mph N9.5 kmh N 12.3 mph19.8 kmh 29.52 in999.7 mb 0.00 in0.0 mm 0.00 in0.0 mm 1.16 in29.5 mm
04:30 PM 73.4°F23.0°C 43.5°F6.4°C 34% 5.2 mph NW8.4 kmh NW 12.3 mph19.8 kmh 29.52 in999.7 mb 0.00 in0.0 mm 0.00 in0.0 mm 1.16 in29.5 mm
04:35 PM 73.5°F23.1°C 44.5°F6.9°C 36% 2.9 mph NNW4.7 kmh NNW 7.4 mph11.9 kmh 29.52 in999.7 mb 0.00 in0.0 mm 0.00 in0.0 mm 1.16 in29.5 mm
04:40 PM 73.4°F23.0°C 44.8°F7.1°C 36% 6.6 mph NW10.6 kmh NW 12.3 mph19.8 kmh 29.52 in999.7 mb 0.00 in0.0 mm 0.00 in0.0 mm 1.16 in29.5 mm
04:45 PM 73.4°F23.0°C 43.8°F6.6°C 35% 3.7 mph NW6.0 kmh NW 7.4 mph11.9 kmh 29.52 in999.7 mb 0.00 in0.0 mm 0.00 in0.0 mm 1.16 in29.5 mm
04:50 PM 73.4°F23.0°C 44.1°F6.7°C 35% 4.2 mph NW6.8 kmh NW 7.4 mph11.9 kmh 29.52 in999.7 mb 0.00 in0.0 mm 0.00 in0.0 mm 1.16 in29.5 mm
04:55 PM 73.4°F23.0°C 43.9°F6.6°C 35% 4.3 mph NNW6.9 kmh NNW 12.3 mph19.8 kmh 29.52 in999.7 mb 0.00 in0.0 mm 0.00 in0.0 mm 1.16 in29.5 mm
05:00 PM 73.4°F23.0°C 42.4°F5.8°C 33% 3.5 mph NW5.6 kmh NW 9.8 mph15.8 kmh 29.52 in999.7 mb 0.00 in0.0 mm 0.00 in0.0 mm 1.16 in29.5 mm
05:05 PM 73.4°F23.0°C 41.9°F5.5°C 32% 4.4 mph NNW7.1 kmh NNW 9.8 mph15.8 kmh 29.52 in999.7 mb 0.00 in0.0 mm 0.00 in0.0 mm 1.16 in29.5 mm
05:10 PM 73.3°F22.9°C 40.6°F4.8°C 31% 4.2 mph NW6.8 kmh NW 7.4 mph11.9 kmh 29.52 in999.7 mb 0.00 in0.0 mm 0.00 in0.0 mm 1.16 in29.5 mm
05:15 PM 73.2°F22.9°C 40.2°F4.6°C 30% 5.1 mph NW8.2 kmh NW 12.3 mph19.8 kmh 29.52 in999.7 mb 0.00 in0.0 mm 0.00 in0.0 mm 1.16 in29.5 mm
05:20 PM 73.1°F22.8°C 40.1°F4.5°C 30% 5.5 mph NNW8.9 kmh NNW 9.8 mph15.8 kmh 29.52 in999.7 mb 0.00 in0.0 mm 0.00 in0.0 mm 1.16 in29.5 mm
05:25 PM 73.0°F22.8°C 39.7°F4.3°C 30% 4.8 mph NW7.7 kmh NW 12.3 mph19.8 kmh 29.52 in999.7 mb 0.00 in0.0 mm 0.00 in0.0 mm 1.16 in29.5 mm
05:30 PM 73.0°F22.8°C 39.9°F4.4°C 30% 3.6 mph NNW5.8 kmh NNW 9.8 mph15.8 kmh 29.52 in999.7 mb 0.00 in0.0 mm 0.00 in0.0 mm 1.16 in29.5 mm
05:35 PM 73.1°F22.8°C 41.8°F5.4°C 32% 3.1 mph NW5.0 kmh NW 9.8 mph15.8 kmh 29.52 in999.7 mb 0.00 in0.0 mm 0.00 in0.0 mm 1.16 in29.5 mm
05:40 PM 73.0°F22.8°C 41.1°F5.1°C 32% 6.0 mph NNW9.7 kmh NNW 15.0 mph24.1 kmh 29.52 in999.7 mb 0.00 in0.0 mm 0.00 in0.0 mm 1.16 in29.5 mm
05:45 PM 73.0°F22.8°C 39.6°F4.2°C 30% 4.5 mph NW7.2 kmh NW 9.8 mph15.8 kmh 29.52 in999.7 mb 0.00 in0.0 mm 0.00 in0.0 mm 1.16 in29.5 mm
05:50 PM 73.0°F22.8°C 38.8°F3.8°C 29% 3.4 mph N5.5 kmh N 12.3 mph19.8 kmh 29.52 in999.7 mb 0.00 in0.0 mm 0.00 in0.0 mm 1.16 in29.5 mm
05:55 PM 72.7°F22.6°C 38.6°F3.7°C 29% 3.3 mph NNW5.3 kmh NNW 7.4 mph11.9 kmh 29.53 in1000.0 mb 0.00 in0.0 mm 0.00 in0.0 mm 1.16 in29.5 mm
06:00 PM 72.7°F22.6°C 38.1°F3.4°C 28% 4.3 mph N6.9 kmh N 7.4 mph11.9 kmh 29.52 in999.7 mb 0.00 in0.0 mm 0.00 in0.0 mm 1.16 in29.5 mm
06:05 PM 72.6°F22.6°C 39.1°F3.9°C 30% 3.1 mph NNW5.0 kmh NNW 12.3 mph19.8 kmh 29.52 in999.7 mb 0.00 in0.0 mm 0.00 in0.0 mm 1.16 in29.5 mm
06:10 PM 72.5°F22.5°C 38.7°F3.7°C 29% 3.5 mph NW5.6 kmh NW 7.4 mph11.9 kmh 29.52 in999.7 mb 0.00 in0.0 mm 0.00 in0.0 mm 1.16 in29.5 mm
06:15 PM 72.0°F22.2°C 38.7°F3.7°C 30% 3.7 mph NNW6.0 kmh NNW 7.4 mph11.9 kmh 29.52 in999.7 mb 0.00 in0.0 mm 0.00 in0.0 mm 1.16 in29.5 mm
06:20 PM 72.0°F22.2°C 38.0°F3.3°C 29% 2.1 mph NW3.4 kmh NW 4.9 mph7.9 kmh 29.53 in1000.0 mb 0.00 in0.0 mm 0.00 in0.0 mm 1.16 in29.5 mm
06:25 PM 71.9°F22.2°C 38.7°F3.7°C 30% 1.9 mph NW3.1 kmh NW 4.9 mph7.9 kmh 29.53 in1000.0 mb 0.00 in0.0 mm 0.00 in0.0 mm 1.16 in29.5 mm
06:30 PM 71.8°F22.1°C 40.3°F4.6°C 32% 1.1 mph NW1.8 kmh NW 4.9 mph7.9 kmh 29.52 in999.7 mb 0.00 in0.0 mm 0.00 in0.0 mm 1.16 in29.5 mm
06:35 PM 71.2°F21.8°C 40.0°F4.4°C 32% 3.3 mph NW5.3 kmh NW 7.4 mph11.9 kmh 29.53 in1000.0 mb 0.00 in0.0 mm 0.00 in0.0 mm 1.16 in29.5 mm
06:40 PM 71.1°F21.7°C 39.9°F4.4°C 32% 2.6 mph NW4.2 kmh NW 7.4 mph11.9 kmh 29.52 in999.7 mb 0.00 in0.0 mm 0.00 in0.0 mm 1.16 in29.5 mm
06:45 PM 71.1°F21.7°C 39.7°F4.3°C 32% 2.1 mph WNW3.4 kmh WNW 4.9 mph7.9 kmh 29.52 in999.7 mb 0.00 in0.0 mm 0.00 in0.0 mm 1.16 in29.5 mm
06:50 PM 71.0°F21.7°C 39.9°F4.4°C 32% 1.8 mph NNW2.9 kmh NNW 4.9 mph7.9 kmh 29.53 in1000.0 mb 0.00 in0.0 mm 0.00 in0.0 mm 1.16 in29.5 mm
06:55 PM 70.5°F21.4°C 39.2°F4.0°C 32% 1.3 mph NW2.1 kmh NW 4.9 mph7.9 kmh 29.53 in1000.0 mb 0.00 in0.0 mm 0.00 in0.0 mm 1.16 in29.5 mm
07:00 PM 70.3°F21.3°C 39.3°F4.1°C 32% 1.4 mph NW2.3 kmh NW 4.9 mph7.9 kmh 29.53 in1000.0 mb 0.00 in0.0 mm 0.00 in0.0 mm 1.16 in29.5 mm
07:05 PM 70.3°F21.3°C 39.8°F4.3°C 33% 1.7 mph NNW2.7 kmh NNW 4.9 mph7.9 kmh 29.53 in1000.0 mb 0.00 in0.0 mm 0.00 in0.0 mm 1.16 in29.5 mm
07:10 PM 70.1°F21.2°C 40.4°F4.7°C 34% 2.1 mph WNW3.4 kmh WNW 4.9 mph7.9 kmh 29.53 in1000.0 mb 0.00 in0.0 mm 0.00 in0.0 mm 1.16 in29.5 mm
07:15 PM 68.5°F20.3°C 40.9°F4.9°C 37% 0.8 mph NNE1.3 kmh NNE 4.9 mph7.9 kmh 29.53 in1000.0 mb 0.00 in0.0 mm 0.00 in0.0 mm 1.16 in29.5 mm
07:20 PM 67.6°F19.8°C 40.5°F4.7°C 37% 0.2 mph NW0.3 kmh NW 2.5 mph4.0 kmh 29.53 in1000.0 mb 0.00 in0.0 mm 0.00 in0.0 mm 1.16 in29.5 mm
07:25 PM 67.4°F19.7°C 40.6°F4.8°C 38% 0.1 mph W0.2 kmh W 2.5 mph4.0 kmh 29.53 in1000.0 mb 0.00 in0.0 mm 0.00 in0.0 mm 1.16 in29.5 mm
07:30 PM 67.1°F19.5°C 41.6°F5.3°C 39% 0.4 mph N0.6 kmh N 2.5 mph4.0 kmh 29.54 in1000.3 mb 0.00 in0.0 mm 0.00 in0.0 mm 1.16 in29.5 mm
07:35 PM 66.0°F18.9°C 41.8°F5.4°C 41% Calm Calm -- 29.54 in1000.3 mb 0.00 in0.0 mm 0.00 in0.0 mm 1.16 in29.5 mm
07:40 PM 64.9°F18.3°C 40.8°F4.9°C 41% Calm Calm -- 29.54 in1000.3 mb 0.00 in0.0 mm 0.00 in0.0 mm 1.16 in29.5 mm
07:45 PM 64.8°F18.2°C 40.9°F4.9°C 42% 0.4 mph NW0.6 kmh NW 2.5 mph4.0 kmh 29.54 in1000.3 mb 0.00 in0.0 mm 0.00 in0.0 mm 1.16 in29.5 mm
07:50 PM 64.7°F18.2°C 41.0°F5.0°C 42% Calm Calm -- 29.54 in1000.3 mb 0.00 in0.0 mm 0.00 in0.0 mm 1.16 in29.5 mm
07:55 PM 64.4°F18.0°C 40.5°F4.7°C 42% Calm Calm -- 29.55 in1000.7 mb 0.00 in0.0 mm 0.00 in0.0 mm 1.16 in29.5 mm
08:00 PM 64.2°F17.9°C 40.6°F4.8°C 42% Calm Calm 2.5 mph4.0 kmh 29.54 in1000.3 mb 0.00 in0.0 mm 0.00 in0.0 mm 1.16 in29.5 mm
08:05 PM 64.2°F17.9°C 40.6°F4.8°C 42% 0.2 mph WNW0.3 kmh WNW 2.5 mph4.0 kmh 29.54 in1000.3 mb 0.00 in0.0 mm 0.00 in0.0 mm 1.16 in29.5 mm
08:10 PM 64.4°F18.0°C 41.1°F5.1°C 42% Calm Calm -- 29.55 in1000.7 mb 0.00 in0.0 mm 0.00 in0.0 mm 1.16 in29.5 mm
08:15 PM 64.4°F18.0°C 41.2°F5.1°C 43% 0.1 mph NW0.2 kmh NW 2.5 mph4.0 kmh 29.55 in1000.7 mb 0.00 in0.0 mm 0.00 in0.0 mm 1.16 in29.5 mm
08:20 PM 64.4°F18.0°C 41.4°F5.2°C 43% 0.2 mph NW0.3 kmh NW 2.5 mph4.0 kmh 29.55 in1000.7 mb 0.00 in0.0 mm 0.00 in0.0 mm 1.16 in29.5 mm
08:25 PM 64.4°F18.0°C 41.4°F5.2°C 43% 0.4 mph NW0.6 kmh NW 2.5 mph4.0 kmh 29.55 in1000.7 mb 0.00 in0.0 mm 0.00 in0.0 mm 1.16 in29.5 mm
08:30 PM 64.4°F18.0°C 41.4°F5.2°C 43% Calm Calm -- 29.54 in1000.3 mb 0.00 in0.0 mm 0.00 in0.0 mm 1.16 in29.5 mm
08:35 PM 64.4°F18.0°C 42.0°F5.6°C 44% Calm Calm -- 29.54 in1000.3 mb 0.00 in0.0 mm 0.00 in0.0 mm 1.16 in29.5 mm
08:40 PM 64.2°F17.9°C 42.6°F5.9°C 45% Calm Calm -- 29.55 in1000.7 mb 0.00 in0.0 mm 0.00 in0.0 mm 1.16 in29.5 mm
08:45 PM 64.2°F17.9°C 42.6°F5.9°C 45% 0.2 mph NW0.3 kmh NW 2.5 mph4.0 kmh 29.55 in1000.7 mb 0.00 in0.0 mm 0.00 in0.0 mm 1.16 in29.5 mm
08:50 PM 64.2°F17.9°C 41.9°F5.5°C 44% 0.2 mph WNW0.3 kmh WNW 2.5 mph4.0 kmh 29.55 in1000.7 mb 0.00 in0.0 mm 0.00 in0.0 mm 1.16 in29.5 mm
08:55 PM 64.3°F17.9°C 42.2°F5.7°C 45% Calm Calm -- 29.55 in1000.7 mb 0.00 in0.0 mm 0.00 in0.0 mm 1.16 in29.5 mm
09:00 PM 64.2°F17.9°C 43.8°F6.6°C 48% Calm Calm -- 29.55 in1000.7 mb 0.00 in0.0 mm 0.00 in0.0 mm 1.16 in29.5 mm
09:05 PM 64.2°F17.9°C 45.4°F7.4°C 50% Calm Calm -- 29.56 in1001.0 mb 0.00 in0.0 mm 0.00 in0.0 mm 1.16 in29.5 mm
09:10 PM 64.0°F17.8°C 46.7°F8.2°C 53% 0.5 mph W0.8 kmh W 2.5 mph4.0 kmh 29.56 in1001.0 mb 0.00 in0.0 mm 0.00 in0.0 mm 1.16 in29.5 mm
09:15 PM 64.0°F17.8°C 46.4°F8.0°C 53% 1.0 mph WNW1.6 kmh WNW 4.9 mph7.9 kmh 29.56 in1001.0 mb 0.00 in0.0 mm 0.00 in0.0 mm 1.16 in29.5 mm
09:20 PM 64.0°F17.8°C 46.1°F7.8°C 52% Calm Calm -- 29.56 in1001.0 mb 0.00 in0.0 mm 0.00 in0.0 mm 1.16 in29.5 mm
09:25 PM 64.0°F17.8°C 47.0°F8.3°C 54% 0.9 mph NW1.4 kmh NW 2.5 mph4.0 kmh 29.56 in1001.0 mb 0.00 in0.0 mm 0.00 in0.0 mm 1.16 in29.5 mm
09:30 PM 64.0°F17.8°C 47.0°F8.3°C 54% 0.5 mph W0.8 kmh W 2.5 mph4.0 kmh 29.56 in1001.0 mb 0.00 in0.0 mm 0.00 in0.0 mm 1.16 in29.5 mm
09:35 PM 64.0°F17.8°C 46.8°F8.2°C 54% Calm Calm -- 29.56 in1001.0 mb 0.00 in0.0 mm 0.00 in0.0 mm 1.16 in29.5 mm
09:40 PM 64.0°F17.8°C 46.5°F8.1°C 53% Calm Calm -- 29.56 in1001.0 mb 0.00 in0.0 mm 0.00 in0.0 mm 1.16 in29.5 mm
09:45 PM 63.9°F17.7°C 46.8°F8.2°C 54% Calm Calm -- 29.56 in1001.0 mb 0.00 in0.0 mm 0.00 in0.0 mm 1.16 in29.5 mm
09:50 PM 63.6°F17.6°C 46.7°F8.2°C 54% Calm Calm -- 29.56 in1001.0 mb 0.00 in0.0 mm 0.00 in0.0 mm 1.16 in29.5 mm
09:55 PM 62.9°F17.2°C 45.1°F7.3°C 52% Calm Calm -- 29.56 in1001.0 mb 0.00 in0.0 mm 0.00 in0.0 mm 1.16 in29.5 mm
10:00 PM 61.4°F16.3°C 43.3°F6.3°C 52% Calm Calm -- 29.57 in1001.4 mb 0.00 in0.0 mm 0.00 in0.0 mm 1.16 in29.5 mm
10:05 PM 61.4°F16.3°C 43.1°F6.2°C 51% Calm Calm -- 29.57 in1001.4 mb 0.00 in0.0 mm 0.00 in0.0 mm 1.16 in29.5 mm
10:10 PM 61.3°F16.3°C 42.8°F6.0°C 51% Calm Calm -- 29.56 in1001.0 mb 0.00 in0.0 mm 0.00 in0.0 mm 1.16 in29.5 mm
10:15 PM 61.3°F16.3°C 42.5°F5.8°C 50% Calm Calm -- 29.57 in1001.4 mb 0.00 in0.0 mm 0.00 in0.0 mm 1.16 in29.5 mm
10:20 PM 61.7°F16.5°C 43.0°F6.1°C 50% Calm Calm -- 29.56 in1001.0 mb 0.00 in0.0 mm 0.00 in0.0 mm 1.16 in29.5 mm
10:25 PM 61.7°F16.5°C 43.5°F6.4°C 51% Calm Calm -- 29.56 in1001.0 mb 0.00 in0.0 mm 0.00 in0.0 mm 1.16 in29.5 mm
10:30 PM 61.5°F16.4°C 44.7°F7.1°C 54% Calm Calm -- 29.57 in1001.4 mb 0.00 in0.0 mm 0.00 in0.0 mm 1.16 in29.5 mm
10:35 PM 61.3°F16.3°C 45.8°F7.7°C 57% Calm Calm -- 29.56 in1001.0 mb 0.00 in0.0 mm 0.00 in0.0 mm 1.16 in29.5 mm
10:40 PM 59.9°F15.5°C 45.3°F7.4°C 58% 0.1 mph W0.2 kmh W 2.5 mph4.0 kmh 29.57 in1001.4 mb 0.00 in0.0 mm 0.00 in0.0 mm 1.16 in29.5 mm
10:45 PM 60.2°F15.7°C 46.2°F7.9°C 60% Calm Calm -- 29.57 in1001.4 mb 0.00 in0.0 mm 0.00 in0.0 mm 1.16 in29.5 mm
10:50 PM 60.4°F15.8°C 46.9°F8.3°C 61% Calm Calm -- 29.57 in1001.4 mb 0.00 in0.0 mm 0.00 in0.0 mm 1.16 in29.5 mm
10:55 PM 60.6°F15.9°C 47.9°F8.8°C 63% 0.6 mph W1.0 kmh W 2.5 mph4.0 kmh 29.57 in1001.4 mb 0.00 in0.0 mm 0.00 in0.0 mm 1.16 in29.5 mm
11:00 PM 60.4°F15.8°C 49.7°F9.8°C 68% 0.1 mph W0.2 kmh W 2.5 mph4.0 kmh 29.57 in1001.4 mb 0.00 in0.0 mm 0.00 in0.0 mm 1.16 in29.5 mm
11:05 PM 60.4°F15.8°C 50.4°F10.2°C 70% Calm Calm 2.5 mph4.0 kmh 29.57 in1001.4 mb 0.00 in0.0 mm 0.00 in0.0 mm 1.16 in29.5 mm
11:10 PM 60.3°F15.7°C 50.4°F10.2°C 70% 0.1 mph W0.2 kmh W 2.5 mph4.0 kmh 29.58 in1001.7 mb 0.00 in0.0 mm 0.00 in0.0 mm 1.16 in29.5 mm
11:15 PM 60.1°F15.6°C 50.0°F10.0°C 69% 1.3 mph W2.1 kmh W 2.5 mph4.0 kmh 29.57 in1001.4 mb 0.00 in0.0 mm 0.00 in0.0 mm 1.16 in29.5 mm
11:20 PM 60.3°F15.7°C 49.7°F9.8°C 68% Calm Calm -- 29.57 in1001.4 mb 0.00 in0.0 mm 0.00 in0.0 mm 1.16 in29.5 mm
11:25 PM 60.1°F15.6°C 49.9°F9.9°C 69% 0.1 mph W0.2 kmh W 2.5 mph4.0 kmh 29.57 in1001.4 mb 0.00 in0.0 mm 0.00 in0.0 mm 1.16 in29.5 mm
11:30 PM 60.0°F15.6°C 50.2°F10.1°C 70% Calm Calm -- 29.57 in1001.4 mb 0.00 in0.0 mm 0.00 in0.0 mm 1.16 in29.5 mm
11:35 PM 59.8°F15.4°C 50.4°F10.2°C 71% 0.1 mph W0.2 kmh W 2.5 mph4.0 kmh 29.57 in1001.4 mb 0.00 in0.0 mm 0.00 in0.0 mm 1.16 in29.5 mm
11:40 PM 59.0°F15.0°C 49.6°F9.8°C 71% 0.9 mph W1.4 kmh W 2.5 mph4.0 kmh 29.57 in1001.4 mb 0.00 in0.0 mm 0.00 in0.0 mm 1.16 in29.5 mm
11:45 PM 59.0°F15.0°C 49.7°F9.8°C 71% 0.3 mph W0.5 kmh W 2.5 mph4.0 kmh 29.57 in1001.4 mb 0.00 in0.0 mm 0.00 in0.0 mm 1.16 in29.5 mm
11:50 PM 59.0°F15.0°C 50.0°F10.0°C 72% 1.1 mph W1.8 kmh W 2.5 mph4.0 kmh 29.57 in1001.4 mb 0.00 in0.0 mm 0.00 in0.0 mm 1.16 in29.5 mm
11:55 PM 59.0°F15.0°C 49.7°F9.8°C 71% 0.4 mph W0.6 kmh W 2.5 mph4.0 kmh 29.57 in1001.4 mb 0.00 in0.0 mm 0.00 in0.0 mm 1.16 in29.5 mm